Decoded Metar for PAKT (KETCHIKAN in AK, USA) (IATA:KTN) | Meteo·Mobile Aviation Weather
aviador You're here:

PAKT Decoded Metar

KETCHIKAN in AK, USA
Report Time2019-02-16 16:53:00
UTC Time2019-02-16 17:43:44
Flight Rules vfr VFR
Wind300° at 05 kt
W.Decomp.*RWY 29: 4.9 kt HW 1 kt LCW
W.Rank300° ranks 9
Current wind is below 300° avg. (6.0)
Visibility9999 m
Phenomena:N/A
Clouds:N/A
Expected CloudBase > 3,200 ft AGL from Temp-Dew spread
CeilingNone
Temp-3°C (ISA -18)
Dew Point-11°C (54% RH)
AAT-7.9°C
QNH1018 hPa
Density Alt-2,234 ft
Elevation92 ft
Report Wrong Elevation
Raw Report
PAKT 161653Z 30005KT 10SM CLR M03/M11 A3006=

Extra information for PAKT:More info

Metar Taf Metar & Taf Last 4 Metars F.Rules Stats Wind Profile Meteogram Temp Stats Airport Information Weather charts Add Link Nearby VenuesMetar ALERT Operation Metar Decoded Social comments

AIRNAV info for PAKT